createdAt,value
2018-06-08T00:01:40.948Z,99.20
2018-06-08T00:04:10.112Z,99.20
2018-06-08T00:06:39.233Z,98.70
2018-06-08T00:09:09.061Z,98.60
2018-06-08T00:11:38.227Z,99.30
2018-06-08T00:16:36.095Z,99.10
2018-06-08T00:19:05.245Z,99.50
2018-06-08T00:21:34.357Z,99.30
2018-06-08T00:24:03.533Z,98.80
2018-06-08T00:26:32.742Z,97.60
2018-06-08T00:29:01.924Z,97.90
2018-06-08T00:31:31.120Z,98.80
2018-06-08T00:34:00.258Z,99.20
2018-06-08T00:36:29.416Z,99.00
2018-06-08T00:38:58.545Z,98.70
2018-06-08T00:41:27.777Z,99.30
2018-06-08T00:43:56.913Z,99.30
2018-06-08T00:46:26.047Z,99.90
2018-06-08T00:48:55.206Z,99.20
2018-06-08T00:51:25.390Z,98.30
2018-06-08T00:53:54.517Z,99.00
2018-06-08T00:56:34.910Z,99.70
2018-06-08T00:59:04.075Z,99.80
2018-06-08T01:01:34.447Z,99.20
2018-06-08T01:04:04.615Z,99.60
2018-06-08T01:06:33.749Z,98.80
2018-06-08T01:09:03.120Z,98.70
2018-06-08T01:11:32.246Z,98.90
2018-06-08T01:14:01.388Z,98.80
2018-06-08T01:16:30.538Z,98.90
2018-06-08T01:19:02.837Z,99.30
2018-06-08T01:21:32.290Z,99.90
2018-06-08T01:24:01.419Z,99.90
2018-06-08T01:26:30.822Z,99.60
2018-06-08T01:29:00.030Z,99.50
2018-06-08T01:31:29.136Z,99.30
2018-06-08T01:33:58.233Z,99.50
2018-06-08T01:36:27.451Z,99.00
2018-06-08T01:38:56.599Z,99.20
2018-06-08T01:41:25.744Z,99.00
2018-06-08T01:43:54.922Z,98.50
2018-06-08T01:46:24.024Z,98.50
2018-06-08T01:48:53.159Z,98.70
2018-06-08T01:51:22.307Z,99.40
2018-06-08T01:53:51.427Z,99.30
2018-06-08T01:56:20.666Z,99.20
2018-06-08T01:58:49.923Z,98.90
2018-06-08T02:01:19.070Z,98.60
2018-06-08T02:03:48.216Z,98.20
2018-06-08T02:06:18.375Z,98.30
2018-06-08T02:08:47.775Z,98.80
2018-06-08T02:11:17.043Z,99.20
2018-06-08T02:13:46.134Z,98.90
2018-06-08T02:16:15.279Z,98.90
2018-06-08T02:18:44.629Z,99.00
2018-06-08T02:21:13.757Z,99.30
2018-06-08T02:23:42.924Z,99.40
2018-06-08T02:26:12.076Z,99.40
2018-06-08T02:28:41.262Z,99.30
2018-06-08T02:31:10.453Z,98.70
2018-06-08T02:33:39.577Z,99.20
2018-06-08T02:36:08.751Z,99.00
2018-06-08T02:38:37.914Z,98.60
2018-06-08T02:41:07.067Z,98.50
2018-06-08T02:43:36.255Z,98.70
2018-06-08T02:46:05.454Z,98.70
2018-06-08T02:48:34.632Z,99.20
2018-06-08T02:51:03.797Z,98.90
2018-06-08T02:53:32.993Z,99.00
2018-06-08T02:56:02.125Z,98.60
2018-06-08T02:58:31.300Z,98.80
2018-06-08T03:01:00.483Z,99.10
2018-06-08T03:03:29.630Z,99.10
2018-06-08T03:05:58.813Z,99.20
2018-06-08T03:08:28.006Z,99.00
2018-06-08T03:10:57.208Z,98.50
2018-06-08T03:13:26.368Z,99.70
2018-06-08T03:15:55.732Z,99.20
2018-06-08T03:18:24.916Z,98.90
2018-06-08T03:20:54.197Z,98.50
2018-06-08T03:23:23.734Z,98.30
2018-06-08T03:25:52.906Z,98.50
2018-06-08T03:28:22.064Z,98.70
2018-06-08T03:30:51.258Z,98.70
2018-06-08T03:33:20.449Z,98.00
2018-06-08T03:35:49.549Z,98.40
2018-06-08T03:38:18.747Z,98.50
2018-06-08T03:40:47.902Z,98.50
2018-06-08T03:43:17.056Z,98.30
2018-06-08T03:45:46.209Z,98.10
2018-06-08T03:48:15.366Z,98.30
2018-06-08T03:50:44.578Z,98.00
2018-06-08T03:53:13.712Z,97.90
2018-06-08T03:55:42.860Z,97.90
2018-06-08T04:00:47.386Z,98.00
2018-06-08T04:03:16.559Z,98.00
2018-06-08T04:05:46.105Z,98.20
2018-06-08T04:08:15.241Z,97.90
2018-06-08T04:10:44.395Z,97.90
2018-06-08T04:13:13.566Z,97.90
2018-06-08T04:18:11.458Z,97.50
2018-06-08T04:20:40.595Z,97.20
2018-06-08T04:23:09.740Z,97.30
2018-06-08T04:25:38.938Z,97.20
2018-06-08T04:28:08.091Z,97.00
2018-06-08T04:30:37.252Z,96.90
2018-06-08T04:33:06.512Z,96.90
2018-06-08T04:35:35.658Z,96.80
2018-06-08T04:38:04.820Z,96.80
2018-06-08T04:40:33.983Z,97.00
2018-06-08T04:43:03.110Z,96.80
2018-06-08T04:45:32.270Z,97.00
2018-06-08T04:48:01.852Z,96.90
2018-06-08T04:50:31.057Z,97.10
2018-06-08T04:53:00.270Z,96.70
2018-06-08T04:55:29.443Z,97.00
2018-06-08T04:57:58.608Z,96.00
2018-06-08T05:00:27.735Z,96.40
2018-06-08T05:02:56.906Z,96.20
2018-06-08T05:05:26.062Z,95.90
2018-06-08T05:07:55.239Z,96.00
2018-06-08T05:10:24.331Z,96.50
2018-06-08T05:12:53.484Z,96.60
2018-06-08T05:15:22.600Z,96.40
2018-06-08T05:17:51.754Z,96.00
2018-06-08T05:20:20.953Z,95.80
2018-06-08T05:22:50.097Z,96.10
2018-06-08T05:25:19.258Z,96.10
2018-06-08T05:27:48.415Z,96.40
2018-06-08T05:30:20.726Z,95.30
2018-06-08T05:32:49.833Z,95.60
2018-06-08T05:35:19.050Z,95.90
2018-06-08T05:37:48.183Z,96.00
2018-06-08T05:40:17.349Z,96.10
2018-06-08T05:42:46.810Z,95.80
2018-06-08T05:45:15.946Z,95.50
2018-06-08T05:47:45.310Z,95.00
2018-06-08T05:50:14.445Z,94.60
2018-06-08T05:52:43.626Z,94.60
2018-06-08T05:55:12.760Z,94.50
2018-06-08T05:57:42.016Z,94.10
2018-06-08T06:00:11.337Z,93.80
2018-06-08T06:02:40.497Z,94.30
2018-06-08T06:05:09.662Z,93.90
2018-06-08T06:07:38.863Z,93.70
2018-06-08T06:10:09.039Z,92.70
2018-06-08T06:12:38.230Z,93.60
2018-06-08T06:15:07.654Z,93.60
2018-06-08T06:20:07.960Z,92.50
2018-06-08T06:22:37.090Z,92.30
2018-06-08T06:25:06.270Z,92.50
2018-06-08T06:27:35.412Z,91.90
2018-06-08T06:30:05.365Z,91.70
2018-06-08T06:32:35.008Z,91.80
2018-06-08T06:35:04.266Z,91.50
2018-06-08T06:37:33.568Z,91.20
2018-06-08T06:40:02.816Z,90.50
2018-06-08T06:42:32.130Z,89.20
2018-06-08T06:45:01.335Z,83.20
2018-06-08T06:47:31.480Z,79.80
2018-06-08T06:50:00.682Z,76.60
2018-06-08T06:52:29.886Z,75.40
2018-06-08T06:54:59.023Z,69.20
2018-06-08T06:57:28.193Z,61.20
2018-06-08T06:59:57.343Z,57.90
2018-06-08T07:02:26.726Z,56.70
2018-06-08T07:04:55.963Z,55.60
2018-06-08T07:07:25.122Z,53.20
2018-06-08T07:09:54.271Z,52.00
2018-06-08T07:12:23.449Z,49.90
2018-06-08T07:14:52.587Z,49.80
2018-06-08T07:17:21.767Z,48.20
2018-06-08T07:19:51.004Z,48.20
2018-06-08T07:22:24.046Z,47.40
2018-06-08T07:24:53.239Z,44.70
2018-06-08T07:27:22.340Z,46.40
2018-06-08T07:29:51.527Z,44.60
2018-06-08T07:32:20.728Z,45.30
2018-06-08T07:34:50.021Z,45.20
2018-06-08T07:37:19.278Z,42.40
2018-06-08T07:39:48.475Z,41.20
2018-06-08T07:42:17.681Z,41.30
2018-06-08T07:44:46.920Z,41.40
2018-06-08T07:47:16.149Z,42.10
2018-06-08T07:52:14.369Z,40.90
2018-06-08T07:54:43.644Z,42.40
2018-06-08T07:57:12.853Z,43.80
2018-06-08T07:59:42.034Z,42.90
2018-06-08T08:02:11.235Z,41.90
2018-06-08T08:04:40.432Z,42.90
2018-06-08T08:07:09.689Z,42.60
2018-06-08T08:09:38.854Z,41.30
2018-06-08T08:12:08.058Z,42.00
2018-06-08T08:14:37.160Z,42.40
2018-06-08T08:17:06.399Z,42.70
2018-06-08T08:19:35.659Z,42.10
2018-06-08T08:22:04.825Z,42.40
2018-06-08T08:24:33.989Z,40.40
2018-06-08T08:27:03.239Z,39.10
2018-06-08T08:29:32.427Z,40.80
2018-06-08T08:32:01.642Z,39.50
2018-06-08T08:34:30.873Z,40.50
2018-06-08T08:37:00.106Z,41.00
2018-06-08T08:41:58.001Z,41.60
2018-06-08T08:44:27.105Z,43.10
2018-06-08T08:46:56.401Z,45.60
2018-06-08T08:49:25.563Z,49.20
2018-06-08T08:51:54.708Z,50.90
2018-06-08T08:56:52.982Z,53.30
2018-06-08T08:59:22.128Z,53.20
2018-06-08T09:01:52.511Z,54.80
2018-06-08T09:04:21.649Z,57.00
2018-06-08T09:06:53.022Z,59.50
2018-06-08T09:09:22.193Z,64.90
2018-06-08T09:11:51.386Z,69.00
2018-06-08T09:14:21.622Z,72.80
2018-06-08T09:16:50.976Z,73.60
2018-06-08T09:19:21.092Z,72.80
2018-06-08T09:21:50.277Z,72.40
2018-06-08T09:24:19.962Z,71.80
2018-06-08T09:26:49.098Z,68.90
2018-06-08T09:29:18.494Z,67.40
2018-06-08T09:31:47.589Z,67.30
2018-06-08T09:36:45.575Z,71.50
2018-06-08T09:39:14.772Z,72.40
2018-06-08T09:41:44.029Z,72.00
2018-06-08T09:44:13.160Z,71.90
2018-06-08T09:46:42.459Z,72.20
2018-06-08T09:49:12.590Z,74.60
2018-06-08T09:51:41.860Z,74.90
2018-06-08T09:54:11.040Z,75.10
2018-06-08T09:56:40.247Z,73.90
2018-06-08T09:59:09.491Z,72.60
2018-06-08T10:01:38.666Z,73.10
2018-06-08T10:04:07.890Z,73.10
2018-06-08T10:06:37.156Z,72.30
2018-06-08T10:09:08.249Z,71.60
2018-06-08T10:11:37.362Z,71.20
2018-06-08T10:14:06.561Z,72.50
2018-06-08T10:16:35.785Z,72.20
2018-06-08T10:19:04.898Z,71.10
2018-06-08T10:21:34.104Z,70.60
2018-06-08T10:24:03.258Z,71.80
2018-06-08T10:26:32.398Z,70.80
2018-06-08T10:29:01.567Z,70.90
2018-06-08T10:31:30.747Z,70.20
2018-06-08T10:33:59.927Z,70.00
2018-06-08T10:36:29.084Z,70.50
2018-06-08T10:38:58.277Z,71.30
2018-06-08T10:41:27.413Z,70.50
2018-06-08T10:43:56.644Z,70.60
2018-06-08T10:46:25.778Z,69.80
2018-06-08T10:48:55.106Z,70.30
2018-06-08T10:51:24.234Z,71.10
2018-06-08T10:53:53.369Z,71.60
2018-06-08T10:56:22.618Z,72.10
2018-06-08T10:58:51.797Z,72.30
2018-06-08T11:01:21.010Z,72.70
2018-06-08T11:03:50.204Z,72.40
2018-06-08T11:06:19.372Z,72.90
2018-06-08T11:08:48.508Z,72.20
2018-06-08T11:11:17.756Z,71.90
2018-06-08T11:13:46.884Z,72.20
2018-06-08T11:16:16.026Z,71.20
2018-06-08T11:18:45.177Z,71.00
2018-06-08T11:21:14.320Z,71.20
2018-06-08T11:23:43.601Z,72.10
2018-06-08T11:26:12.822Z,72.60
2018-06-08T11:28:41.927Z,72.90
2018-06-08T11:31:11.085Z,73.10
2018-06-08T11:33:40.255Z,72.40
2018-06-08T11:36:09.551Z,72.40
2018-06-08T11:38:38.794Z,72.10
2018-06-08T11:41:07.932Z,72.50
2018-06-08T11:43:37.249Z,72.10
2018-06-08T11:46:06.444Z,71.20
2018-06-08T11:48:35.610Z,71.70
2018-06-08T11:51:04.799Z,72.60
2018-06-08T11:53:33.943Z,73.30
2018-06-08T11:56:03.105Z,73.10
2018-06-08T11:58:32.270Z,73.30
2018-06-08T12:01:01.367Z,73.60
2018-06-08T12:03:30.507Z,74.20
2018-06-08T12:05:59.641Z,73.10
2018-06-08T12:08:28.848Z,72.60
2018-06-08T12:10:58.022Z,72.70
2018-06-08T12:13:27.260Z,72.40
2018-06-08T12:15:56.416Z,71.40
2018-06-08T12:18:25.664Z,71.10
2018-06-08T12:20:54.859Z,70.40
2018-06-08T12:23:24.083Z,70.50
2018-06-08T12:25:53.294Z,69.90
2018-06-08T12:28:22.522Z,70.00
2018-06-08T12:30:51.762Z,69.30
2018-06-08T12:33:20.955Z,69.60
2018-06-08T12:35:50.131Z,69.10
2018-06-08T12:38:19.454Z,70.10
2018-06-08T12:40:48.688Z,69.20
2018-06-08T12:43:17.933Z,69.10
2018-06-08T12:45:47.147Z,68.30
2018-06-08T12:48:16.345Z,67.50
2018-06-08T12:50:45.749Z,66.30
2018-06-08T12:53:15.169Z,67.10
2018-06-08T12:55:44.590Z,68.50
2018-06-08T12:58:13.788Z,68.50
2018-06-08T13:00:43.052Z,68.00
2018-06-08T13:03:12.346Z,67.40
2018-06-08T13:05:41.624Z,67.30
2018-06-08T13:08:10.891Z,66.30
2018-06-08T13:10:40.148Z,66.30
2018-06-08T13:13:09.685Z,67.10
2018-06-08T13:15:39.657Z,67.40
2018-06-08T13:18:08.936Z,67.20
2018-06-08T13:20:38.243Z,66.50
2018-06-08T13:25:36.334Z,67.10
2018-06-08T13:28:05.567Z,66.80
2018-06-08T13:30:34.772Z,67.50
2018-06-08T13:33:04.059Z,68.30
2018-06-08T13:35:33.538Z,67.50
2018-06-08T13:38:02.720Z,66.70
2018-06-08T13:40:32.055Z,66.00
2018-06-08T13:43:01.268Z,65.80
2018-06-08T13:45:31.337Z,66.00
2018-06-08T13:48:00.534Z,65.50
2018-06-08T13:50:29.874Z,66.70
2018-06-08T13:52:59.164Z,66.60
2018-06-08T13:55:28.439Z,67.50
2018-06-08T13:57:57.642Z,68.00
2018-06-08T14:00:26.930Z,66.80
2018-06-08T14:02:56.339Z,66.20
2018-06-08T14:05:25.622Z,65.50
2018-06-08T14:07:54.856Z,64.40
2018-06-08T14:10:24.180Z,65.50
2018-06-08T14:12:53.334Z,66.20
2018-06-08T14:15:22.774Z,66.20
2018-06-08T14:17:52.056Z,65.90
2018-06-08T14:20:21.328Z,65.60
2018-06-08T14:22:50.578Z,65.10
2018-06-08T14:25:19.810Z,64.40
2018-06-08T14:27:49.074Z,64.10
2018-06-08T14:30:18.278Z,65.30
2018-06-08T14:32:47.462Z,65.10
2018-06-08T14:35:16.706Z,65.40
2018-06-08T14:37:45.897Z,65.70
2018-06-08T14:40:15.142Z,66.50
2018-06-08T14:42:44.361Z,66.10
2018-06-08T14:45:13.535Z,66.00
2018-06-08T14:47:42.730Z,66.00
2018-06-08T14:50:11.985Z,65.80
2018-06-08T14:52:41.140Z,65.80
2018-06-08T14:55:10.330Z,65.90
2018-06-08T14:57:39.478Z,65.90
2018-06-08T15:00:08.737Z,65.40
2018-06-08T15:02:38.074Z,64.70
2018-06-08T15:05:07.539Z,64.60
2018-06-08T15:07:36.835Z,64.60
2018-06-08T15:10:06.259Z,63.90
2018-06-08T15:12:35.432Z,64.40
2018-06-08T15:15:04.950Z,64.70
2018-06-08T15:17:34.344Z,64.10
2018-06-08T15:20:03.697Z,64.00
2018-06-08T15:22:33.217Z,63.70
2018-06-08T15:25:02.587Z,64.10
2018-06-08T15:27:31.969Z,64.30
2018-06-08T15:30:01.305Z,64.00
2018-06-08T15:32:30.813Z,63.90
2018-06-08T15:35:00.222Z,64.20
2018-06-08T15:37:29.459Z,64.40
2018-06-08T15:39:58.722Z,64.40
2018-06-08T15:42:28.070Z,64.20
2018-06-08T15:44:57.336Z,64.30
2018-06-08T15:47:26.944Z,64.20
2018-06-08T15:49:56.119Z,64.00
2018-06-08T15:52:25.462Z,63.70
2018-06-08T15:54:54.707Z,63.40
2018-06-08T15:57:23.958Z,63.30
2018-06-08T15:59:53.139Z,63.00
2018-06-08T16:02:22.462Z,63.60
2018-06-08T16:04:51.746Z,63.60
2018-06-08T16:07:21.068Z,63.50
2018-06-08T16:09:50.253Z,62.20
2018-06-08T16:12:19.450Z,61.60
2018-06-08T16:14:48.713Z,62.20
2018-06-08T16:17:17.930Z,62.40
2018-06-08T16:19:47.055Z,61.80
2018-06-08T16:22:16.242Z,61.60
2018-06-08T16:24:45.429Z,61.70
2018-06-08T16:27:14.726Z,62.20
2018-06-08T16:29:44.144Z,62.30
2018-06-08T16:32:13.385Z,62.90
2018-06-08T16:34:42.620Z,62.90
2018-06-08T16:37:11.890Z,63.50
2018-06-08T16:39:41.080Z,64.10
2018-06-08T16:42:10.446Z,64.40
2018-06-08T16:44:39.640Z,64.80
2018-06-08T16:47:08.851Z,64.50
2018-06-08T16:49:38.099Z,65.00
2018-06-08T16:52:07.278Z,65.40
2018-06-08T16:54:36.481Z,65.80
2018-06-08T16:57:05.905Z,66.20
2018-06-08T16:59:35.050Z,66.40
2018-06-08T17:02:04.285Z,66.90
2018-06-08T17:04:33.478Z,67.00
2018-06-08T17:07:02.639Z,66.50
2018-06-08T17:09:31.804Z,64.50
2018-06-08T17:12:00.971Z,62.90
2018-06-08T17:14:30.106Z,61.60
2018-06-08T17:16:59.292Z,60.70
2018-06-08T17:19:28.509Z,59.90
2018-06-08T17:21:57.687Z,60.10
2018-06-08T17:24:26.847Z,60.00
2018-06-08T17:26:56.259Z,59.90
2018-06-08T17:29:25.414Z,60.30
2018-06-08T17:31:54.585Z,61.20
2018-06-08T17:34:23.756Z,62.60
2018-06-08T17:36:52.940Z,64.10
2018-06-08T17:39:22.126Z,65.10
2018-06-08T17:41:51.318Z,65.70
2018-06-08T17:44:20.500Z,65.80
2018-06-08T17:46:49.785Z,66.60
2018-06-08T17:49:18.936Z,67.00
2018-06-08T17:51:48.170Z,67.80
2018-06-08T17:54:17.354Z,68.10
2018-06-08T17:56:46.630Z,68.50
2018-06-08T17:59:15.762Z,68.80
2018-06-08T18:01:44.974Z,69.50
2018-06-08T18:04:14.261Z,69.60
2018-06-08T18:06:43.509Z,69.70
2018-06-08T18:09:13.243Z,69.60
2018-06-08T18:11:42.433Z,71.10
2018-06-08T18:14:11.596Z,72.00
2018-06-08T18:16:40.753Z,75.30
2018-06-08T18:19:09.946Z,75.70
2018-06-08T18:21:39.117Z,77.10
2018-06-08T18:24:08.345Z,78.20
2018-06-08T18:26:37.463Z,79.40
2018-06-08T18:29:06.638Z,80.00
2018-06-08T18:31:35.814Z,79.30
2018-06-08T18:34:05.017Z,81.30
2018-06-08T18:36:34.285Z,80.70
2018-06-08T18:39:06.377Z,82.30
2018-06-08T18:41:37.447Z,82.40
2018-06-08T18:44:08.445Z,81.90
2018-06-08T18:46:39.394Z,83.50
2018-06-08T18:49:10.418Z,83.60
2018-06-08T18:51:41.323Z,85.40
2018-06-08T18:54:10.594Z,87.30
2018-06-08T18:56:39.831Z,86.30
2018-06-08T18:59:08.942Z,89.10
2018-06-08T19:01:38.126Z,88.40
2018-06-08T19:04:07.354Z,90.00
2018-06-08T19:06:36.548Z,90.70
2018-06-08T19:09:08.503Z,92.10
2018-06-08T19:11:37.709Z,92.40
2018-06-08T19:14:06.905Z,92.00
2018-06-08T19:16:36.151Z,91.90
2018-06-08T19:19:05.299Z,92.40
2018-06-08T19:21:34.514Z,92.60
2018-06-08T19:24:03.698Z,92.40
2018-06-08T19:26:32.887Z,92.90
2018-06-08T19:29:02.046Z,93.00
2018-06-08T19:31:31.165Z,92.60
2018-06-08T19:34:00.530Z,92.90
2018-06-08T19:36:29.726Z,93.80
2018-06-08T19:38:58.901Z,94.70
2018-06-08T19:41:28.145Z,95.00
2018-06-08T19:46:26.090Z,95.40
2018-06-08T19:48:55.364Z,95.90
2018-06-08T19:51:24.512Z,96.40
2018-06-08T19:53:53.733Z,95.80
2018-06-08T19:56:22.934Z,95.50
2018-06-08T19:58:52.078Z,95.10
2018-06-08T20:01:21.357Z,95.00
2018-06-08T20:03:50.558Z,95.60
2018-06-08T20:06:19.808Z,95.40
2018-06-08T20:08:48.990Z,95.40
2018-06-08T20:11:18.130Z,95.50
2018-06-08T20:13:47.330Z,95.60
2018-06-08T20:16:16.594Z,95.70
2018-06-08T20:18:45.792Z,95.40
2018-06-08T20:21:14.950Z,95.60
2018-06-08T20:23:44.172Z,95.10
2018-06-08T20:26:13.383Z,96.10
2018-06-08T20:28:42.554Z,95.90
2018-06-08T20:31:11.737Z,95.20
2018-06-08T20:33:41.024Z,95.10
2018-06-08T20:36:10.205Z,95.40
2018-06-08T20:38:39.394Z,96.40
2018-06-08T20:41:08.754Z,96.90
2018-06-08T20:43:37.976Z,96.70
2018-06-08T20:48:35.884Z,96.40
2018-06-08T20:51:05.152Z,96.40
2018-06-08T20:53:34.337Z,96.20
2018-06-08T20:56:03.549Z,96.10
2018-06-08T20:58:32.776Z,96.50
2018-06-08T21:01:02.739Z,96.00
2018-06-08T21:03:31.903Z,97.50
2018-06-08T21:06:01.201Z,97.90
2018-06-08T21:08:30.664Z,98.00
2018-06-08T21:11:00.173Z,97.40
2018-06-08T21:13:29.961Z,97.60
2018-06-08T21:15:59.122Z,97.60
2018-06-08T21:18:28.354Z,97.50
2018-06-08T21:20:57.583Z,97.50
2018-06-08T21:23:26.796Z,97.50
2018-06-08T21:25:55.984Z,97.90
2018-06-08T21:28:25.199Z,97.70
2018-06-08T21:30:54.395Z,97.40
2018-06-08T21:35:52.828Z,97.80
2018-06-08T21:38:22.041Z,98.60
2018-06-08T21:40:51.285Z,99.10
2018-06-08T21:43:20.438Z,98.40
2018-06-08T21:45:49.672Z,98.00
2018-06-08T21:48:18.850Z,97.80
2018-06-08T21:50:48.049Z,97.80
2018-06-08T21:53:17.213Z,97.90
2018-06-08T21:55:46.476Z,98.20
2018-06-08T21:58:15.727Z,98.20
2018-06-08T22:00:44.870Z,98.60
2018-06-08T22:03:14.079Z,98.30
2018-06-08T22:05:43.268Z,98.20
2018-06-08T22:08:12.474Z,98.40
2018-06-08T22:10:41.680Z,98.90
2018-06-08T22:13:10.873Z,98.90
2018-06-08T22:15:40.471Z,98.60
2018-06-08T22:18:09.665Z,98.70
2018-06-08T22:20:38.909Z,97.80
2018-06-08T22:23:08.174Z,98.10
2018-06-08T22:25:37.348Z,98.10
2018-06-08T22:30:35.385Z,97.80
2018-06-08T22:33:04.671Z,98.00
2018-06-08T22:35:33.841Z,98.40
2018-06-08T22:38:03.081Z,98.50
2018-06-08T22:40:32.898Z,98.20
2018-06-08T22:43:02.215Z,98.00
2018-06-08T22:45:31.353Z,97.90
2018-06-08T22:50:29.337Z,98.90
2018-06-08T22:52:58.643Z,99.30
2018-06-08T22:55:27.855Z,98.50
2018-06-08T22:57:57.080Z,98.70
2018-06-08T23:00:26.310Z,98.20
2018-06-08T23:02:55.638Z,98.20
2018-06-08T23:05:24.837Z,98.00
2018-06-08T23:07:53.973Z,98.30
2018-06-08T23:10:23.145Z,98.30
2018-06-08T23:12:52.402Z,98.60
2018-06-08T23:15:21.657Z,98.30
2018-06-08T23:17:50.892Z,98.40
2018-06-08T23:20:20.226Z,98.10
2018-06-08T23:22:49.456Z,98.10
2018-06-08T23:25:19.106Z,98.10
2018-06-08T23:27:48.323Z,97.90
2018-06-08T23:30:17.464Z,98.20
2018-06-08T23:32:46.681Z,98.30
2018-06-08T23:35:15.853Z,97.80
2018-06-08T23:37:45.342Z,97.80
2018-06-08T23:40:14.456Z,98.00
2018-06-08T23:42:43.604Z,98.00
2018-06-08T23:45:13.081Z,98.10
2018-06-08T23:47:42.256Z,98.20
2018-06-08T23:50:11.497Z,97.60
2018-06-08T23:52:40.721Z,98.00
2018-06-08T23:55:09.874Z,97.80
2018-06-08T23:57:39.057Z,97.50
